createdAt,value
2019-05-12T00:05:00.163Z,9.90
2019-05-12T00:10:08.601Z,8.77
2019-05-12T00:15:14.686Z,7.93
2019-05-12T00:20:20.662Z,7.97
2019-05-12T00:25:28.290Z,7.40
2019-05-12T00:30:39.738Z,8.43
2019-05-12T00:35:48.125Z,8.20
2019-05-12T00:40:53.238Z,7.07
2019-05-12T00:45:59.360Z,6.83
2019-05-12T00:51:07.626Z,7.10
2019-05-12T00:56:13.014Z,5.93
2019-05-12T01:01:18.917Z,6.10
2019-05-12T01:06:24.828Z,6.03
2019-05-12T01:11:30.867Z,7.17
2019-05-12T01:16:38.539Z,6.90
2019-05-12T01:21:44.524Z,6.93
2019-05-12T01:26:50.377Z,5.33
2019-05-12T01:32:02.691Z,4.53
2019-05-12T01:37:23.660Z,5.23
2019-05-12T01:42:29.621Z,5.63
2019-05-12T01:47:38.045Z,6.60
2019-05-12T01:52:43.191Z,6.23
2019-05-12T01:57:49.073Z,6.77
2019-05-12T02:02:55.035Z,6.97
2019-05-12T02:08:01.581Z,7.53
2019-05-12T02:13:07.878Z,6.20
2019-05-12T02:18:14.114Z,7.13
2019-05-12T02:23:20.162Z,6.40
2019-05-12T02:28:28.177Z,6.50
2019-05-12T02:33:35.601Z,7.40
2019-05-12T02:38:41.061Z,7.00
2019-05-12T02:43:46.853Z,6.00
2019-05-12T02:48:54.629Z,6.93
2019-05-12T02:54:00.419Z,5.90
2019-05-12T02:59:07.199Z,7.47
2019-05-12T03:04:14.755Z,6.23
2019-05-12T03:09:24.400Z,7.03
2019-05-12T03:14:29.655Z,7.07
2019-05-12T03:19:36.874Z,7.23
2019-05-12T03:24:44.912Z,7.03
2019-05-12T03:29:50.251Z,6.90
2019-05-12T03:34:58.001Z,7.03
2019-05-12T03:40:05.503Z,8.47
2019-05-12T03:45:14.747Z,7.73
2019-05-12T03:50:19.237Z,7.23
2019-05-12T03:55:35.454Z,6.97
2019-05-12T04:00:35.928Z,7.57
2019-05-12T04:05:40.228Z,7.40
2019-05-12T04:10:46.207Z,6.37
2019-05-12T04:15:55.360Z,6.10
2019-05-12T04:20:59.803Z,7.13
2019-05-12T04:26:11.865Z,6.93
2019-05-12T04:31:15.418Z,7.07
2019-05-12T04:36:20.866Z,7.23
2019-05-12T04:41:26.674Z,6.50
2019-05-12T04:46:34.619Z,7.60
2019-05-12T04:51:40.465Z,8.30
2019-05-12T04:56:46.641Z,8.40
2019-05-12T05:01:54.045Z,7.93
2019-05-12T05:07:00.208Z,8.57
2019-05-12T05:12:06.298Z,9.13
2019-05-12T05:17:14.345Z,10.00
2019-05-12T05:22:19.974Z,10.20
2019-05-12T05:27:27.905Z,9.00
2019-05-12T05:32:34.071Z,9.07
2019-05-12T05:37:43.553Z,10.93
2019-05-12T05:42:47.993Z,10.67
2019-05-12T05:47:54.532Z,11.57
2019-05-12T05:53:00.743Z,12.27
2019-05-12T05:58:10.414Z,12.23
2019-05-12T06:03:22.742Z,15.20
2019-05-12T06:08:23.735Z,16.23
2019-05-12T06:13:31.831Z,16.63
2019-05-12T06:18:37.285Z,17.63
2019-05-12T06:23:43.572Z,17.60
2019-05-12T06:28:49.643Z,18.17
2019-05-12T06:33:55.829Z,17.23
2019-05-12T06:39:04.259Z,18.60
2019-05-12T06:44:14.894Z,17.43
2019-05-12T06:49:17.844Z,19.93
2019-05-12T06:54:24.794Z,20.30
2019-05-12T06:59:31.019Z,19.47
2019-05-12T07:04:41.356Z,18.17
2019-05-12T07:09:53.776Z,18.60
2019-05-12T07:14:57.603Z,17.83
2019-05-12T07:20:03.873Z,17.37
2019-05-12T07:25:09.698Z,16.93
2019-05-12T07:30:16.932Z,15.70
2019-05-12T07:35:24.048Z,14.23
2019-05-12T07:40:34.743Z,14.83
2019-05-12T07:45:44.040Z,16.37
2019-05-12T07:50:50.246Z,14.27
2019-05-12T07:55:57.476Z,9.63
2019-05-12T08:01:07.188Z,8.43
2019-05-12T08:06:10.989Z,9.03
2019-05-12T08:11:17.072Z,7.83
2019-05-12T08:16:25.615Z,7.17
2019-05-12T08:21:34.786Z,5.63
2019-05-12T08:26:38.183Z,7.07
2019-05-12T08:31:44.213Z,6.23
2019-05-12T08:36:53.425Z,6.47
2019-05-12T08:41:57.720Z,6.57
2019-05-12T08:47:04.002Z,6.10
2019-05-12T08:52:10.065Z,6.05
2019-05-12T08:57:18.024Z,6.33
2019-05-12T09:02:24.129Z,5.33
2019-05-12T09:07:35.032Z,6.45
2019-05-12T09:12:38.003Z,6.70
2019-05-12T09:17:52.457Z,6.37
2019-05-12T09:22:52.842Z,6.20
2019-05-12T09:27:59.474Z,5.22
2019-05-12T09:33:05.591Z,5.42
2019-05-12T09:38:21.308Z,5.25
2019-05-12T09:43:19.053Z,4.33
2019-05-12T09:48:25.051Z,3.83
2019-05-12T09:53:31.101Z,3.72
2019-05-12T09:58:37.231Z,3.58
2019-05-12T10:03:43.917Z,3.17
2019-05-12T10:08:50.080Z,3.70
2019-05-12T10:14:00.426Z,3.55
2019-05-12T10:19:04.397Z,2.65
2019-05-12T10:24:10.547Z,2.90
2019-05-12T10:29:20.594Z,2.30
2019-05-12T10:34:29.239Z,2.25
2019-05-12T10:39:33.467Z,2.40
2019-05-12T10:44:40.878Z,2.08
2019-05-12T10:49:47.227Z,3.22
2019-05-12T10:54:53.814Z,2.12
2019-05-12T10:59:59.830Z,2.62
2019-05-12T11:05:14.659Z,1.98
2019-05-12T11:10:19.705Z,2.25
2019-05-12T11:15:24.121Z,1.98
2019-05-12T11:20:29.658Z,1.95
2019-05-12T11:25:35.639Z,2.33
2019-05-12T11:30:43.594Z,2.20
2019-05-12T11:35:53.919Z,1.72
2019-05-12T11:40:59.165Z,1.80
2019-05-12T11:46:05.137Z,1.70
2019-05-12T11:51:10.922Z,1.87
2019-05-12T11:56:18.025Z,1.60
2019-05-12T12:01:25.584Z,2.00
2019-05-12T12:06:33.146Z,1.95
2019-05-12T12:11:39.070Z,1.85
2019-05-12T12:16:50.128Z,1.45
2019-05-12T12:21:53.662Z,1.87
2019-05-12T12:27:00.070Z,1.70
2019-05-12T12:32:09.807Z,1.82
2019-05-12T12:37:18.873Z,2.05
2019-05-12T12:42:24.149Z,1.85
2019-05-12T12:47:29.998Z,1.70
2019-05-12T12:52:38.658Z,2.20
2019-05-12T12:57:46.501Z,2.25
2019-05-12T13:02:51.760Z,1.77
2019-05-12T13:07:58.262Z,2.20
2019-05-12T13:13:04.527Z,1.85
2019-05-12T13:18:17.894Z,2.12
2019-05-12T13:23:17.907Z,2.20
2019-05-12T13:28:25.866Z,1.70
2019-05-12T13:33:33.852Z,2.17
2019-05-12T13:38:40.623Z,2.10
2019-05-12T13:43:54.821Z,1.87
2019-05-12T13:48:57.729Z,1.98
2019-05-12T13:54:03.854Z,2.12
2019-05-12T13:59:12.117Z,2.27
2019-05-12T14:04:22.309Z,2.10
2019-05-12T14:09:26.214Z,1.95
2019-05-12T14:14:34.084Z,1.98
2019-05-12T14:19:40.368Z,1.80
2019-05-12T14:24:46.977Z,2.00
2019-05-12T14:29:53.786Z,2.22
2019-05-12T14:35:00.813Z,1.80
2019-05-12T14:40:07.451Z,2.10
2019-05-12T14:45:14.059Z,4.15
2019-05-12T14:50:20.248Z,2.47
2019-05-12T14:55:26.496Z,1.90
2019-05-12T15:00:34.258Z,2.02
2019-05-12T15:05:41.353Z,2.10
2019-05-12T15:10:48.306Z,2.12
2019-05-12T15:15:56.055Z,1.57
2019-05-12T15:21:03.588Z,1.87
2019-05-12T15:26:15.023Z,1.87
2019-05-12T15:31:17.803Z,2.80
2019-05-12T15:36:24.699Z,2.12
2019-05-12T15:41:33.072Z,2.30
2019-05-12T15:46:41.131Z,2.10
2019-05-12T15:51:54.101Z,1.87
2019-05-12T15:56:55.761Z,2.17
2019-05-12T16:02:12.015Z,2.00
2019-05-12T16:07:09.756Z,1.85
2019-05-12T16:12:23.377Z,2.10
2019-05-12T16:17:25.462Z,2.50
2019-05-12T16:22:37.300Z,2.12
2019-05-12T16:27:39.075Z,1.98
2019-05-12T16:32:47.819Z,1.65
2019-05-12T16:37:53.319Z,2.65
2019-05-12T16:43:00.176Z,2.27
2019-05-12T16:48:14.215Z,2.60
2019-05-12T16:53:21.537Z,2.12
2019-05-12T16:58:26.172Z,2.20
2019-05-12T17:03:29.375Z,2.10
2019-05-12T17:08:35.548Z,2.20
2019-05-12T17:13:47.346Z,2.25
2019-05-12T17:18:49.511Z,2.20
2019-05-12T17:23:55.769Z,2.08
2019-05-12T17:29:02.534Z,2.20
2019-05-12T17:34:09.220Z,2.00
2019-05-12T17:39:16.047Z,1.85
2019-05-12T17:44:22.137Z,1.82
2019-05-12T17:49:30.797Z,1.65
2019-05-12T17:54:36.149Z,1.67
2019-05-12T17:59:44.670Z,1.85
2019-05-12T18:04:50.080Z,1.65
2019-05-12T18:10:00.483Z,1.77
2019-05-12T18:15:04.589Z,1.62
2019-05-12T18:20:10.926Z,1.50
2019-05-12T18:25:24.186Z,1.55
2019-05-12T18:30:26.838Z,1.35
2019-05-12T18:35:32.962Z,1.50
2019-05-12T18:40:39.253Z,1.77
2019-05-12T18:45:48.671Z,1.70
2019-05-12T18:50:53.311Z,1.20
2019-05-12T18:55:59.291Z,1.72
2019-05-12T19:01:06.332Z,1.82
2019-05-12T19:06:14.080Z,1.52
2019-05-12T19:11:23.676Z,1.20
2019-05-12T19:16:28.205Z,1.30
2019-05-12T19:21:34.230Z,1.52
2019-05-12T19:26:40.453Z,1.40
2019-05-12T19:31:52.687Z,1.30
2019-05-12T19:36:54.546Z,1.12
2019-05-12T19:42:00.607Z,1.30
2019-05-12T19:47:06.624Z,1.30
2019-05-12T19:52:13.975Z,1.32
2019-05-12T19:57:21.952Z,1.30
2019-05-12T20:02:27.741Z,1.17
2019-05-12T20:07:33.961Z,1.60
2019-05-12T20:12:40.241Z,1.47
2019-05-12T20:17:48.742Z,1.90
2019-05-12T20:22:54.287Z,1.90
2019-05-12T20:28:05.801Z,1.10
2019-05-12T20:33:08.273Z,1.10
2019-05-12T20:38:14.869Z,1.40
2019-05-12T20:43:24.110Z,1.60
2019-05-12T20:48:31.124Z,1.32
2019-05-12T20:53:36.830Z,1.35
2019-05-12T20:58:44.308Z,1.40
2019-05-12T21:03:51.103Z,1.77
2019-05-12T21:08:57.329Z,1.82
2019-05-12T21:14:09.909Z,1.60
2019-05-12T21:19:14.093Z,1.57
2019-05-12T21:24:19.346Z,1.40
2019-05-12T21:29:29.698Z,1.60
2019-05-12T21:34:34.480Z,2.08
2019-05-12T21:39:45.648Z,2.05
2019-05-12T21:44:49.748Z,1.60
2019-05-12T21:49:57.921Z,1.47
2019-05-12T21:55:06.134Z,1.40
2019-05-12T22:00:20.193Z,1.90
2019-05-12T22:05:46.998Z,1.90
2019-05-12T22:10:34.407Z,1.77
2019-05-12T22:15:40.485Z,1.80
2019-05-12T22:20:46.683Z,1.60
2019-05-12T22:25:55.551Z,1.82
2019-05-12T22:31:01.997Z,1.35
2019-05-12T22:36:14.529Z,1.87
2019-05-12T22:41:15.795Z,1.80
2019-05-12T22:46:23.376Z,1.70
2019-05-12T22:51:29.603Z,2.37
2019-05-12T22:56:35.522Z,2.25
2019-05-12T23:01:44.550Z,2.10
2019-05-12T23:06:49.010Z,3.00
2019-05-12T23:11:54.962Z,3.33
2019-05-12T23:17:05.789Z,3.03
2019-05-12T23:22:08.699Z,3.30
2019-05-12T23:27:18.741Z,2.93
2019-05-12T23:32:24.196Z,2.63
2019-05-12T23:37:35.252Z,2.70
2019-05-12T23:42:37.822Z,3.17
2019-05-12T23:47:44.142Z,3.30
2019-05-12T23:52:50.191Z,2.73
2019-05-12T23:57:56.138Z,3.00
